createdAt,value
2022-12-08T00:01:42.607Z,7.35
2022-12-08T00:04:11.062Z,7.33
2022-12-08T00:07:01.269Z,7.35
2022-12-08T00:09:32.041Z,7.35
2022-12-08T00:12:10.358Z,7.37
2022-12-08T00:14:45.320Z,7.39
2022-12-08T00:17:16.184Z,7.38
2022-12-08T00:19:45.145Z,7.39
2022-12-08T00:22:14.767Z,7.39
2022-12-08T00:24:45.584Z,7.38
2022-12-08T00:27:15.921Z,7.36
2022-12-08T00:29:45.662Z,7.34
2022-12-08T00:32:13.887Z,7.36
2022-12-08T00:34:41.544Z,7.35
2022-12-08T00:37:09.590Z,7.35
2022-12-08T00:39:37.238Z,7.39
2022-12-08T00:42:14.338Z,7.40
2022-12-08T00:44:46.590Z,7.41
2022-12-08T00:47:15.275Z,7.42
2022-12-08T00:49:43.020Z,7.44
2022-12-08T00:52:12.732Z,7.45
2022-12-08T00:54:40.327Z,7.45
2022-12-08T00:57:08.367Z,7.41
2022-12-08T00:59:36.008Z,7.39
2022-12-08T01:02:04.213Z,7.38
2022-12-08T01:04:50.515Z,7.39
2022-12-08T01:07:18.524Z,7.43
2022-12-08T01:09:47.707Z,7.43
2022-12-08T01:12:15.704Z,7.43
2022-12-08T01:14:43.405Z,7.45
2022-12-08T01:17:11.420Z,7.46
2022-12-08T01:19:39.079Z,7.47
2022-12-08T01:22:07.141Z,7.49
2022-12-08T01:24:35.579Z,7.49
2022-12-08T01:27:03.480Z,7.50
2022-12-08T01:29:31.121Z,7.53
2022-12-08T01:31:59.050Z,7.55
2022-12-08T01:34:26.651Z,7.53
2022-12-08T01:36:54.941Z,7.52
2022-12-08T01:39:37.853Z,7.49
2022-12-08T01:42:06.014Z,7.49
2022-12-08T01:44:33.420Z,7.48
2022-12-08T01:47:01.426Z,7.47
2022-12-08T01:49:34.299Z,7.49
2022-12-08T01:52:18.539Z,7.52
2022-12-08T01:54:59.835Z,7.52
2022-12-08T01:57:53.018Z,7.54
2022-12-08T02:00:22.906Z,7.54
2022-12-08T02:03:20.603Z,7.59
2022-12-08T02:05:48.837Z,7.61
2022-12-08T02:08:17.883Z,7.61
2022-12-08T02:10:52.357Z,7.61
2022-12-08T02:13:23.300Z,7.62
2022-12-08T02:16:27.530Z,7.60
2022-12-08T02:19:33.648Z,7.62
2022-12-08T02:22:20.488Z,7.60
2022-12-08T02:25:17.769Z,7.63
2022-12-08T02:28:03.665Z,7.67
2022-12-08T02:30:54.646Z,7.67
2022-12-08T02:34:17.568Z,7.68
2022-12-08T02:37:11.493Z,7.65
2022-12-08T02:39:42.729Z,7.63
2022-12-08T02:42:45.133Z,7.56
2022-12-08T02:45:55.535Z,7.54
2022-12-08T02:48:28.866Z,7.51
2022-12-08T02:50:56.758Z,7.45
2022-12-08T02:53:24.969Z,7.36
2022-12-08T02:56:06.394Z,7.29
2022-12-08T02:58:54.968Z,7.23
2022-12-08T03:01:34.771Z,7.24
2022-12-08T03:04:17.663Z,7.26
2022-12-08T03:07:02.715Z,7.31
2022-12-08T03:09:56.733Z,7.34
2022-12-08T03:12:56.329Z,7.39
2022-12-08T03:15:24.857Z,7.42
2022-12-08T03:17:58.414Z,7.46
2022-12-08T03:20:30.173Z,7.53
2022-12-08T03:23:02.132Z,7.55
2022-12-08T03:25:34.477Z,7.59
2022-12-08T03:28:02.272Z,7.60
2022-12-08T03:30:34.894Z,7.59
2022-12-08T03:33:23.658Z,7.56
2022-12-08T03:35:53.619Z,7.52
2022-12-08T03:38:21.935Z,7.48
2022-12-08T03:41:09.864Z,7.43
2022-12-08T03:43:38.328Z,7.40
2022-12-08T03:46:06.493Z,7.40
2022-12-08T03:48:34.358Z,7.41
2022-12-08T03:51:02.502Z,7.42
2022-12-08T03:53:30.224Z,7.43
2022-12-08T03:55:58.382Z,7.44
2022-12-08T03:58:25.937Z,7.46
2022-12-08T04:00:53.915Z,7.47
2022-12-08T04:03:21.649Z,7.49
2022-12-08T04:05:49.604Z,7.45
2022-12-08T04:08:17.316Z,7.44
2022-12-08T04:10:45.271Z,7.45
2022-12-08T04:13:12.820Z,7.43
2022-12-08T04:15:45.239Z,7.41
2022-12-08T04:18:13.585Z,7.45
2022-12-08T04:20:46.371Z,7.44
2022-12-08T04:23:14.036Z,7.42
2022-12-08T04:25:42.087Z,7.46
2022-12-08T04:28:09.791Z,7.51
2022-12-08T04:30:37.804Z,7.54
2022-12-08T04:33:06.030Z,7.57
2022-12-08T04:35:33.989Z,7.61
2022-12-08T04:38:01.933Z,7.64
2022-12-08T04:40:29.810Z,7.68
2022-12-08T04:42:57.385Z,7.71
2022-12-08T04:45:25.339Z,7.73
2022-12-08T04:47:53.033Z,7.74
2022-12-08T04:50:20.975Z,7.74
2022-12-08T04:52:48.578Z,7.72
2022-12-08T04:55:16.705Z,7.72
2022-12-08T04:57:44.310Z,7.73
2022-12-08T05:00:13.709Z,7.74
2022-12-08T05:02:41.514Z,7.76
2022-12-08T05:05:10.273Z,7.78
2022-12-08T05:07:38.455Z,7.80
2022-12-08T05:10:07.606Z,7.81
2022-12-08T05:12:36.121Z,7.82
2022-12-08T05:15:04.605Z,7.80
2022-12-08T05:17:32.100Z,7.80
2022-12-08T05:20:00.046Z,7.79
2022-12-08T05:22:27.694Z,7.81
2022-12-08T05:24:55.628Z,7.81
2022-12-08T05:27:23.151Z,7.76
2022-12-08T05:29:51.027Z,7.75
2022-12-08T05:32:18.538Z,7.74
2022-12-08T05:34:46.594Z,7.72
2022-12-08T05:37:14.266Z,7.71
2022-12-08T05:39:42.136Z,7.72
2022-12-08T05:42:09.748Z,7.70
2022-12-08T05:44:37.842Z,7.70
2022-12-08T05:47:05.575Z,7.70
2022-12-08T05:49:33.946Z,7.71
2022-12-08T05:52:02.061Z,7.70
2022-12-08T05:54:30.509Z,7.71
2022-12-08T05:56:58.283Z,7.72
2022-12-08T05:59:26.320Z,7.72
2022-12-08T06:01:53.933Z,7.73
2022-12-08T06:04:22.294Z,7.75
2022-12-08T06:06:50.116Z,7.76
2022-12-08T06:09:18.044Z,7.79
2022-12-08T06:11:47.239Z,7.79
2022-12-08T06:14:15.042Z,7.79
2022-12-08T06:16:42.715Z,7.76
2022-12-08T06:19:10.785Z,7.72
2022-12-08T06:21:38.532Z,7.71
2022-12-08T06:24:06.725Z,7.67
2022-12-08T06:26:36.190Z,7.65
2022-12-08T06:29:05.184Z,7.61
2022-12-08T06:31:32.847Z,7.56
2022-12-08T06:34:00.959Z,7.57
2022-12-08T06:36:28.805Z,7.55
2022-12-08T06:38:57.292Z,7.54
2022-12-08T06:41:25.542Z,7.54
2022-12-08T06:43:57.627Z,7.55
2022-12-08T06:46:25.559Z,7.56
2022-12-08T06:48:54.372Z,7.59
2022-12-08T06:51:25.596Z,7.63
2022-12-08T06:53:53.694Z,7.66
2022-12-08T06:56:23.951Z,7.70
2022-12-08T06:58:52.958Z,7.74
2022-12-08T07:01:21.062Z,7.78
2022-12-08T07:03:49.195Z,7.80
2022-12-08T07:06:25.421Z,7.85
2022-12-08T07:08:53.377Z,7.90
2022-12-08T07:11:22.363Z,7.91
2022-12-08T07:13:51.164Z,7.92
2022-12-08T07:16:19.037Z,7.91
2022-12-08T07:18:47.157Z,7.96
2022-12-08T07:21:16.152Z,8.01
2022-12-08T07:23:50.239Z,8.07
2022-12-08T07:26:21.974Z,8.11
2022-12-08T07:28:49.915Z,8.12
2022-12-08T07:31:24.945Z,8.15
2022-12-08T07:33:53.863Z,8.17
2022-12-08T07:36:22.919Z,8.20
2022-12-08T07:38:53.414Z,8.28
2022-12-08T07:41:25.489Z,8.35
2022-12-08T07:43:54.421Z,8.43
2022-12-08T07:46:25.362Z,8.49
2022-12-08T07:48:55.202Z,8.54
2022-12-08T07:51:24.913Z,8.58
2022-12-08T07:53:54.594Z,8.67
2022-12-08T07:56:23.619Z,8.73
2022-12-08T07:58:51.999Z,8.76
2022-12-08T08:01:31.890Z,8.83
2022-12-08T08:04:04.693Z,8.88
2022-12-08T08:06:33.897Z,8.91
2022-12-08T08:09:01.790Z,8.92
2022-12-08T08:11:29.516Z,8.96
2022-12-08T08:13:57.817Z,8.97
2022-12-08T08:16:25.453Z,9.02
2022-12-08T08:18:53.821Z,9.07
2022-12-08T08:21:45.058Z,9.12
2022-12-08T08:24:11.105Z,9.18
2022-12-08T08:26:38.714Z,9.24
2022-12-08T08:29:07.210Z,9.27
2022-12-08T08:31:34.949Z,9.30
2022-12-08T08:34:06.375Z,9.33
2022-12-08T08:36:35.433Z,9.35
2022-12-08T08:39:04.586Z,9.41
2022-12-08T08:41:32.378Z,9.42
2022-12-08T08:44:00.268Z,9.46
2022-12-08T08:46:28.133Z,9.52
2022-12-08T08:48:56.366Z,9.59
2022-12-08T08:51:24.018Z,9.64
2022-12-08T08:53:51.976Z,9.69
2022-12-08T08:56:20.014Z,9.73
2022-12-08T08:58:49.568Z,9.77
2022-12-08T09:01:24.064Z,9.81
2022-12-08T09:03:53.334Z,9.84
2022-12-08T09:06:21.545Z,9.85
2022-12-08T09:08:50.092Z,9.87
2022-12-08T09:11:18.813Z,9.91
2022-12-08T09:13:51.949Z,9.97
2022-12-08T09:16:20.067Z,10.02
2022-12-08T09:18:51.478Z,10.08
2022-12-08T09:21:23.779Z,10.13
2022-12-08T09:23:57.653Z,10.17
2022-12-08T09:26:28.096Z,10.21
2022-12-08T09:28:57.173Z,10.21
2022-12-08T09:31:25.810Z,10.21
2022-12-08T09:33:53.830Z,10.20
2022-12-08T09:36:21.698Z,10.19
2022-12-08T09:38:51.200Z,10.21
2022-12-08T09:41:48.335Z,10.24
2022-12-08T09:44:29.101Z,10.22
2022-12-08T09:46:58.743Z,10.24
2022-12-08T09:49:47.192Z,10.25
2022-12-08T09:52:58.058Z,10.28
2022-12-08T09:55:57.739Z,10.33
2022-12-08T09:58:28.148Z,10.38
2022-12-08T10:00:56.574Z,10.40
2022-12-08T10:03:29.848Z,10.43
2022-12-08T10:06:50.971Z,10.50
2022-12-08T10:09:57.739Z,10.52
2022-12-08T10:12:47.778Z,10.48
2022-12-08T10:15:18.090Z,10.48
2022-12-08T10:17:49.608Z,10.51
2022-12-08T10:20:29.397Z,10.51
2022-12-08T10:23:12.669Z,10.45
2022-12-08T10:25:53.562Z,10.41
2022-12-08T10:28:21.471Z,10.35
2022-12-08T10:30:49.082Z,10.23
2022-12-08T10:33:20.883Z,10.18
2022-12-08T10:35:54.681Z,10.11
2022-12-08T10:38:31.677Z,10.06
2022-12-08T10:41:20.847Z,10.04
2022-12-08T10:43:58.224Z,10.03
2022-12-08T10:46:28.447Z,10.01
2022-12-08T10:49:11.973Z,10.00
2022-12-08T10:51:43.581Z,10.02
2022-12-08T10:54:38.726Z,9.98
2022-12-08T10:57:06.283Z,9.99
2022-12-08T10:59:34.612Z,9.98
2022-12-08T11:02:02.234Z,9.97
2022-12-08T11:04:38.370Z,9.93
2022-12-08T11:07:08.844Z,9.89
2022-12-08T11:09:49.118Z,9.82
2022-12-08T11:12:22.070Z,9.79
2022-12-08T11:15:05.314Z,9.74
2022-12-08T11:17:40.668Z,9.74
2022-12-08T11:20:11.544Z,9.72
2022-12-08T11:22:56.567Z,9.74
2022-12-08T11:25:27.382Z,9.71
2022-12-08T11:28:00.649Z,9.70
2022-12-08T11:30:38.934Z,9.70
2022-12-08T11:33:28.639Z,9.66
2022-12-08T11:36:10.282Z,9.63
2022-12-08T11:38:46.442Z,9.67
2022-12-08T11:41:26.315Z,9.70
2022-12-08T11:44:10.272Z,9.78
2022-12-08T11:47:01.131Z,9.81
2022-12-08T11:49:39.531Z,9.86
2022-12-08T11:52:29.472Z,9.90
2022-12-08T11:55:19.006Z,9.92
2022-12-08T11:57:48.703Z,9.87
2022-12-08T12:00:17.236Z,9.86
2022-12-08T12:02:54.755Z,9.85
2022-12-08T12:06:38.342Z,9.88
2022-12-08T12:09:39.211Z,9.92
2022-12-08T12:12:25.276Z,9.97
2022-12-08T12:15:08.058Z,9.99
2022-12-08T12:18:25.642Z,10.04
2022-12-08T12:21:16.368Z,10.05
2022-12-08T12:24:26.073Z,10.06
2022-12-08T12:27:08.472Z,10.05
2022-12-08T12:29:38.935Z,10.03
2022-12-08T12:32:10.524Z,10.02
2022-12-08T12:34:52.348Z,10.02
2022-12-08T12:37:36.347Z,10.01
2022-12-08T12:40:16.259Z,10.02
2022-12-08T12:42:56.093Z,10.03
2022-12-08T12:45:33.188Z,10.01
2022-12-08T12:48:01.049Z,9.96
2022-12-08T12:50:35.022Z,9.96
2022-12-08T12:53:15.844Z,9.98
2022-12-08T12:55:46.327Z,9.96
2022-12-08T12:58:32.141Z,9.97
2022-12-08T13:01:12.148Z,9.97
2022-12-08T13:04:08.464Z,9.99
2022-12-08T13:06:46.113Z,10.02
2022-12-08T13:09:28.140Z,10.06
2022-12-08T13:12:01.124Z,10.07
2022-12-08T13:14:49.516Z,10.07
2022-12-08T13:17:37.342Z,10.09
2022-12-08T13:20:17.511Z,10.06
2022-12-08T13:22:54.758Z,10.05
2022-12-08T13:25:41.146Z,10.02
2022-12-08T13:28:31.101Z,10.03
2022-12-08T13:31:01.953Z,10.02
2022-12-08T13:33:40.905Z,9.99
2022-12-08T13:36:26.529Z,10.00
2022-12-08T13:38:58.203Z,10.00
2022-12-08T13:41:58.518Z,9.99
2022-12-08T13:57:28.751Z,9.99
2022-12-08T14:00:02.712Z,9.98
2022-12-08T14:02:47.876Z,10.00
2022-12-08T14:05:40.527Z,10.02
2022-12-08T14:09:00.067Z,10.07
2022-12-08T14:11:35.956Z,10.06
2022-12-08T14:14:32.514Z,10.11
2022-12-08T14:17:16.483Z,10.13
2022-12-08T14:19:53.597Z,10.14
2022-12-08T14:22:21.936Z,10.14
2022-12-08T14:24:55.355Z,10.14
2022-12-08T14:27:26.628Z,10.14
2022-12-08T14:30:01.612Z,10.13
2022-12-08T14:32:30.223Z,10.13
2022-12-08T14:35:08.953Z,10.14
2022-12-08T14:37:50.709Z,10.14
2022-12-08T14:40:38.486Z,10.02
2022-12-08T14:43:09.166Z,9.88
2022-12-08T14:45:42.616Z,9.77
2022-12-08T14:48:21.290Z,9.74
2022-12-08T14:50:54.898Z,9.75
2022-12-08T14:53:24.293Z,9.81
2022-12-08T14:55:52.420Z,9.83
2022-12-08T14:58:30.311Z,9.88
2022-12-08T15:01:00.208Z,9.92
2022-12-08T15:03:31.534Z,9.97
2022-12-08T15:06:06.291Z,10.03
2022-12-08T15:08:50.808Z,10.08
2022-12-08T15:11:30.152Z,10.14
2022-12-08T15:13:58.826Z,10.18
2022-12-08T15:16:36.343Z,10.22
2022-12-08T15:19:40.895Z,10.25
2022-12-08T15:22:22.997Z,10.26
2022-12-08T15:24:50.828Z,10.29
2022-12-08T15:27:21.776Z,10.28
2022-12-08T15:29:51.381Z,10.29
2022-12-08T15:32:24.237Z,10.31
2022-12-08T15:34:52.304Z,10.32
2022-12-08T15:37:26.680Z,10.33
2022-12-08T15:39:54.978Z,10.34
2022-12-08T15:42:22.626Z,10.33
2022-12-08T15:44:51.863Z,10.36
2022-12-08T15:47:24.747Z,10.36
2022-12-08T15:49:53.474Z,10.38
2022-12-08T15:52:25.039Z,10.40
2022-12-08T15:54:53.255Z,10.40
2022-12-08T15:57:59.153Z,10.40
2022-12-08T16:00:55.558Z,10.41
2022-12-08T16:09:40.753Z,10.38
2022-12-08T16:13:40.434Z,10.37
2022-12-08T16:18:24.107Z,10.33
2022-12-08T16:21:09.754Z,10.29
2022-12-08T16:23:44.607Z,10.23
2022-12-08T16:29:20.461Z,10.18
2022-12-08T16:31:49.332Z,10.18
2022-12-08T16:34:17.339Z,10.20
2022-12-08T16:36:44.951Z,10.23
2022-12-08T16:39:14.625Z,10.25
2022-12-08T16:42:00.691Z,10.25
2022-12-08T16:44:28.678Z,10.23
2022-12-08T16:46:56.262Z,10.25
2022-12-08T16:49:25.108Z,10.25
2022-12-08T16:51:52.868Z,10.25
2022-12-08T16:54:20.747Z,10.24
2022-12-08T16:56:48.360Z,10.23
2022-12-08T16:59:16.161Z,10.21
2022-12-08T17:01:43.731Z,10.21
2022-12-08T17:04:31.134Z,10.14
2022-12-08T17:06:59.572Z,10.11
2022-12-08T17:09:28.607Z,10.07
2022-12-08T17:12:01.827Z,10.03
2022-12-08T17:14:36.332Z,9.98
2022-12-08T17:17:04.271Z,9.96
2022-12-08T17:19:33.146Z,9.92
2022-12-08T17:22:02.300Z,9.93
2022-12-08T17:24:30.648Z,9.95
2022-12-08T17:27:04.073Z,9.91
2022-12-08T17:29:33.378Z,9.89
2022-12-08T17:32:01.419Z,9.89
2022-12-08T17:34:29.568Z,9.88
2022-12-08T17:36:57.316Z,9.88
2022-12-08T17:39:25.812Z,9.90
2022-12-08T17:41:53.546Z,9.88
2022-12-08T17:44:21.801Z,9.91
2022-12-08T17:46:52.961Z,9.91
2022-12-08T17:49:29.766Z,9.94
2022-12-08T17:52:01.278Z,9.93
2022-12-08T17:54:30.449Z,9.90
2022-12-08T17:56:58.858Z,9.90
2022-12-08T17:59:28.826Z,9.90
2022-12-08T18:01:58.684Z,9.92
2022-12-08T18:04:28.145Z,9.95
2022-12-08T18:06:58.333Z,9.93
2022-12-08T18:09:26.408Z,9.95
2022-12-08T18:11:53.987Z,9.95
2022-12-08T18:14:22.041Z,9.94
2022-12-08T18:16:49.666Z,9.91
2022-12-08T18:19:18.589Z,9.90
2022-12-08T18:21:46.378Z,9.91
2022-12-08T18:24:22.505Z,9.93
2022-12-08T18:26:52.983Z,9.94
2022-12-08T18:29:23.161Z,9.96
2022-12-08T18:31:51.866Z,9.96
2022-12-08T18:34:20.526Z,9.98
2022-12-08T18:36:48.816Z,9.99
2022-12-08T18:39:32.560Z,9.98
2022-12-08T18:42:22.886Z,9.95
2022-12-08T18:44:52.848Z,9.90
2022-12-08T18:47:20.557Z,9.90
2022-12-08T18:49:48.778Z,9.89
2022-12-08T18:52:20.423Z,9.87
2022-12-08T18:55:06.196Z,9.85
2022-12-08T18:57:38.916Z,9.88
2022-12-08T19:00:10.114Z,9.87
2022-12-08T19:02:38.922Z,9.86
2022-12-08T19:05:09.155Z,9.86
2022-12-08T19:07:37.661Z,9.87
2022-12-08T19:10:07.127Z,9.84
2022-12-08T19:12:35.021Z,9.85
2022-12-08T19:15:03.245Z,9.81
2022-12-08T19:17:31.091Z,9.78
2022-12-08T19:19:59.157Z,9.73
2022-12-08T19:22:26.767Z,9.73
2022-12-08T19:24:54.735Z,9.70
2022-12-08T19:27:22.448Z,9.69
2022-12-08T19:29:50.691Z,9.67
2022-12-08T19:32:18.395Z,9.67
2022-12-08T19:34:46.632Z,9.66
2022-12-08T19:37:15.373Z,9.65
2022-12-08T19:40:01.997Z,9.60
2022-12-08T19:42:48.431Z,9.52
2022-12-08T19:45:21.675Z,9.44
2022-12-08T19:47:49.421Z,9.36
2022-12-08T19:50:37.000Z,9.29
2022-12-08T19:53:14.973Z,9.21
2022-12-08T19:55:44.428Z,9.22
2022-12-08T19:58:12.273Z,9.20
2022-12-08T20:00:41.465Z,9.21
2022-12-08T20:03:10.776Z,9.15
2022-12-08T20:05:41.911Z,9.14
2022-12-08T20:08:10.080Z,9.12
2022-12-08T20:10:42.627Z,9.08
2022-12-08T20:13:29.906Z,9.05
2022-12-08T20:15:58.485Z,9.00
2022-12-08T20:18:26.218Z,8.98
2022-12-08T20:20:54.244Z,8.97
2022-12-08T20:23:22.226Z,8.93
2022-12-08T20:25:50.358Z,8.91
2022-12-08T20:28:19.135Z,8.92
2022-12-08T20:30:49.075Z,8.92
2022-12-08T20:33:19.087Z,8.92
2022-12-08T20:35:48.146Z,8.91
2022-12-08T20:38:17.356Z,8.91
2022-12-08T20:40:47.299Z,8.92
2022-12-08T20:43:14.796Z,8.91
2022-12-08T20:45:43.078Z,8.88
2022-12-08T20:48:10.984Z,8.91
2022-12-08T20:50:38.942Z,8.95
2022-12-08T20:53:06.801Z,9.00
2022-12-08T20:55:35.735Z,9.03
2022-12-08T20:58:03.779Z,9.07
2022-12-08T21:00:31.950Z,9.06
2022-12-08T21:02:59.712Z,9.09
2022-12-08T21:05:27.913Z,9.10
2022-12-08T21:07:56.219Z,9.11
2022-12-08T21:10:24.319Z,9.08
2022-12-08T21:12:51.958Z,9.05
2022-12-08T21:15:19.887Z,9.02
2022-12-08T21:17:47.718Z,9.03
2022-12-08T21:20:15.956Z,9.03
2022-12-08T21:22:43.796Z,9.03
2022-12-08T21:25:11.972Z,9.01
2022-12-08T21:27:40.317Z,9.00
2022-12-08T21:30:10.278Z,8.99
2022-12-08T21:32:39.742Z,9.01
2022-12-08T21:35:08.344Z,9.05
2022-12-08T21:37:36.159Z,9.04
2022-12-08T21:40:07.701Z,9.05
2022-12-08T21:42:45.052Z,9.02
2022-12-08T21:45:17.671Z,8.98
2022-12-08T21:47:47.260Z,8.97
2022-12-08T21:50:16.153Z,8.99
2022-12-08T21:52:46.863Z,9.00
2022-12-08T21:55:19.156Z,9.00
2022-12-08T21:57:47.494Z,8.98
2022-12-08T22:00:17.734Z,8.95
2022-12-08T22:02:46.581Z,8.92
2022-12-08T22:05:15.022Z,8.89
2022-12-08T22:07:42.804Z,8.90
2022-12-08T22:10:12.209Z,8.88
2022-12-08T22:12:41.107Z,8.86
2022-12-08T22:15:11.464Z,8.86
2022-12-08T22:17:41.735Z,8.86
2022-12-08T22:20:14.981Z,8.84
2022-12-08T22:22:43.146Z,8.74
2022-12-08T22:25:12.063Z,8.67
2022-12-08T22:27:41.565Z,8.58
2022-12-08T22:30:10.850Z,8.56
2022-12-08T22:32:39.319Z,8.58
2022-12-08T22:35:07.856Z,8.57
2022-12-08T22:37:35.645Z,8.61
2022-12-08T22:40:04.827Z,8.65
2022-12-08T22:42:33.068Z,8.68
2022-12-08T22:45:01.449Z,8.74
2022-12-08T22:47:29.134Z,8.78
2022-12-08T22:49:57.191Z,8.78
2022-12-08T22:52:24.920Z,8.80
2022-12-08T22:54:53.059Z,8.85
2022-12-08T22:57:20.728Z,8.93
2022-12-08T22:59:48.661Z,9.01
2022-12-08T23:02:16.281Z,9.10
2022-12-08T23:04:46.553Z,9.13
2022-12-08T23:07:14.484Z,9.11
2022-12-08T23:09:42.727Z,9.02
2022-12-08T23:12:10.601Z,8.94
2022-12-08T23:14:38.611Z,8.88
2022-12-08T23:17:06.291Z,8.78
2022-12-08T23:19:37.617Z,8.72
2022-12-08T23:22:05.482Z,8.66
2022-12-08T23:24:34.015Z,8.64
2022-12-08T23:27:02.317Z,8.67
2022-12-08T23:29:30.766Z,8.70
2022-12-08T23:31:58.584Z,8.74
2022-12-08T23:34:26.833Z,8.78
2022-12-08T23:36:54.774Z,8.79
2022-12-08T23:39:24.887Z,8.77
2022-12-08T23:41:52.823Z,8.76
2022-12-08T23:44:20.858Z,8.76
2022-12-08T23:46:48.634Z,8.80
2022-12-08T23:49:16.959Z,8.83
2022-12-08T23:51:44.803Z,8.85
2022-12-08T23:54:13.033Z,8.87
2022-12-08T23:56:40.837Z,8.89
2022-12-08T23:59:09.196Z,8.89
